This is the latest recevied weather packets stored in our database for station/object JH1CWL-13. If no packets are shown the sender has not sent any weather packets the latest 10 day(s).
| Time | Temp. | Humidity | Pressure | Rain* | Wind** | Luminosity | Snow |
|---|---|---|---|---|---|---|---|
| 1777816524 | 18.89° C | 93% | 1004.2 hPa | 0 mm | - | - | - |
| 1777815324 | 18.89° C | 91% | 1004.3 hPa | 0 mm | - | - | - |
| 1777814126 | 18.89° C | 89% | 1004.6 hPa | 0 mm | - | - | - |
| 1777812925 | 19.44° C | 88% | 1004.8 hPa | 0 mm | - | - | - |
| 1777811725 | 19.44° C | 87% | 1004.9 hPa | 0 mm | - | - | - |
| 1777810525 | 20° C | 84% | 1005.4 hPa | 0 mm | - | - | - |
| 1777809325 | 20° C | 85% | 1005.2 hPa | 0 mm | - | - | - |
| 1777808125 | 20° C | 83% | 1005.8 hPa | 0 mm | - | - | - |
| 1777806925 | 20.56° C | 82% | 1005.7 hPa | 0 mm | - | - | - |
| 1777805725 | 20.56° C | 82% | 1005.5 hPa | 0 mm | - | - | - |
| 1777804525 | 20° C | 82% | 1005.2 hPa | 0 mm | - | - | - |
| 1777803324 | 20° C | 82% | 1005.3 hPa | 0 mm | - | - | - |
| 1777802124 | 20° C | 83% | 1005.3 hPa | 0 mm | - | - | - |
| 1777800925 | 20° C | 83% | 1005.7 hPa | 0 mm | - | - | - |
| 1777799724 | 20° C | 83% | 1005.5 hPa | 0 mm | - | - | - |
| 1777798525 | 20.56° C | 82% | 1005.9 hPa | 0 mm | - | - | - |
| 1777797325 | 20.56° C | 82% | 1006.1 hPa | 0 mm | - | - | - |
| 1777796125 | 20.56° C | 81% | 1006.2 hPa | 0 mm | - | - | - |
| 1777794925 | 20.56° C | 80% | 1005.9 hPa | 0 mm | - | - | - |
| 1777793724 | 21.11° C | 78% | 1005.9 hPa | 0 mm | - | - | - |
| 1777792525 | 21.11° C | 79% | 1005.9 hPa | 0 mm | - | - | - |
| 1777791326 | 21.67° C | 78% | 1006 hPa | 0 mm | - | - | - |
| 1777790125 | 21.67° C | 78% | 1006.3 hPa | 0 mm | - | - | - |
| 1777788925 | 21.67° C | 80% | 1006.1 hPa | 0 mm | - | - | - |
| 1777787725 | 21.67° C | 79% | 1006.1 hPa | 0 mm | - | - | - |
* Rain latest hour (hover to see other rain measurements)
** Current wind speed in m/s (hover to see current wind gust speed)